createdAt,value
2023-04-15T00:04:58.630Z,10.11
2023-04-15T00:10:02.298Z,10.10
2023-04-15T00:15:06.728Z,10.10
2023-04-15T00:20:10.595Z,10.09
2023-04-15T00:25:13.632Z,10.09
2023-04-15T00:30:17.139Z,10.09
2023-04-15T00:35:20.046Z,10.10
2023-04-15T00:40:24.945Z,10.10
2023-04-15T00:45:30.970Z,10.09
2023-04-15T00:50:33.881Z,10.08
2023-04-15T00:55:38.173Z,10.06
2023-04-15T01:00:41.771Z,10.06
2023-04-15T01:05:44.742Z,10.04
2023-04-15T01:10:48.054Z,10.02
2023-04-15T01:15:52.556Z,10.01
2023-04-15T01:20:56.023Z,10.01
2023-04-15T01:25:59.801Z,9.99
2023-04-15T01:31:10.907Z,9.98
2023-04-15T01:36:14.554Z,9.96
2023-04-15T01:41:17.671Z,9.95
2023-04-15T01:46:21.183Z,9.93
2023-04-15T01:51:24.397Z,9.92
2023-04-15T01:56:27.406Z,9.91
2023-04-15T02:01:30.331Z,9.90
2023-04-15T02:06:33.528Z,9.89
2023-04-15T02:11:37.687Z,9.89
2023-04-15T02:16:40.920Z,9.90
2023-04-15T02:21:43.872Z,9.90
2023-04-15T02:26:46.886Z,9.92
2023-04-15T02:31:50.278Z,9.93
2023-04-15T02:36:57.341Z,9.93
2023-04-15T02:42:01.243Z,9.94
2023-04-15T02:47:07.137Z,9.92
2023-04-15T02:52:10.204Z,9.93
2023-04-15T02:57:13.324Z,9.94
2023-04-15T03:02:16.306Z,9.95
2023-04-15T03:07:19.943Z,9.95
2023-04-15T03:12:23.050Z,9.96
2023-04-15T03:17:26.088Z,9.96
2023-04-15T03:22:29.108Z,9.97
2023-04-15T03:27:32.391Z,9.97
2023-04-15T03:32:35.866Z,9.96
2023-04-15T03:37:39.004Z,9.96
2023-04-15T03:42:41.917Z,9.96
2023-04-15T03:47:45.071Z,9.98
2023-04-15T03:52:49.563Z,9.99
2023-04-15T03:57:53.586Z,9.99
2023-04-15T04:02:57.179Z,10.00
2023-04-15T04:08:00.779Z,9.99
2023-04-15T04:13:03.740Z,10.00
2023-04-15T04:18:06.841Z,10.00
2023-04-15T04:23:09.857Z,10.01
2023-04-15T04:28:12.759Z,10.03
2023-04-15T04:33:15.766Z,10.04
2023-04-15T04:38:19.076Z,10.08
2023-04-15T04:43:22.179Z,10.16
2023-04-15T04:48:25.080Z,10.28
2023-04-15T04:53:28.297Z,10.30
2023-04-15T04:58:31.305Z,10.34
2023-04-15T05:03:34.534Z,10.35
2023-04-15T05:08:39.922Z,10.36
2023-04-15T05:13:43.395Z,10.41
2023-04-15T05:18:46.517Z,10.47
2023-04-15T05:23:49.716Z,10.47
2023-04-15T05:28:52.721Z,10.46
2023-04-15T05:33:55.727Z,10.53
2023-04-15T05:38:58.651Z,10.57
2023-04-15T05:44:02.150Z,10.56
2023-04-15T05:49:05.050Z,10.58
2023-04-15T05:54:08.064Z,10.61
2023-04-15T05:59:11.378Z,10.60
2023-04-15T06:04:14.348Z,10.56
2023-04-15T06:09:17.796Z,10.54
2023-04-15T06:14:20.914Z,10.54
2023-04-15T06:19:23.805Z,10.57
2023-04-15T06:24:26.833Z,10.65
2023-04-15T06:29:29.740Z,10.71
2023-04-15T06:34:32.723Z,10.72
2023-04-15T06:39:35.624Z,10.68
2023-04-15T06:44:39.044Z,10.66
2023-04-15T06:49:43.281Z,10.65
2023-04-15T06:54:46.485Z,10.66
2023-04-15T06:59:49.392Z,10.69
2023-04-15T07:04:52.299Z,10.72
2023-04-15T07:09:55.200Z,10.78
2023-04-15T07:14:58.321Z,10.81
2023-04-15T07:20:01.214Z,10.77
2023-04-15T07:25:04.687Z,10.75
2023-04-15T07:30:09.222Z,10.74
2023-04-15T07:35:12.290Z,10.69
2023-04-15T07:40:16.336Z,10.71
2023-04-15T07:45:19.322Z,10.70
2023-04-15T07:50:23.301Z,10.71
2023-04-15T07:55:28.283Z,10.70
2023-04-15T08:00:32.232Z,10.68
2023-04-15T08:05:35.254Z,10.68
2023-04-15T08:10:38.349Z,10.69
2023-04-15T08:15:41.550Z,10.72
2023-04-15T08:20:44.667Z,10.79
2023-04-15T08:25:47.675Z,10.87
2023-04-15T08:30:53.113Z,10.90
2023-04-15T08:35:56.050Z,10.93
2023-04-15T08:41:04.331Z,10.99
2023-04-15T08:46:07.683Z,11.05
2023-04-15T08:51:11.168Z,11.06
2023-04-15T08:56:16.461Z,11.03
2023-04-15T09:01:19.713Z,11.02
2023-04-15T09:06:23.663Z,11.11
2023-04-15T09:11:27.319Z,11.17
2023-04-15T09:16:30.294Z,11.17
2023-04-15T09:21:34.057Z,11.17
2023-04-15T09:26:40.456Z,11.25
2023-04-15T09:31:43.758Z,11.29
2023-04-15T09:36:48.080Z,11.21
2023-04-15T09:42:08.381Z,11.12
2023-04-15T09:47:31.669Z,11.11
2023-04-15T09:52:43.190Z,11.08
2023-04-15T09:57:47.589Z,11.08
2023-04-15T10:02:51.947Z,11.06
2023-04-15T10:07:55.192Z,10.98
2023-04-15T10:12:58.285Z,10.90
2023-04-15T10:18:02.192Z,10.87
2023-04-15T10:23:06.874Z,10.83
2023-04-15T10:28:12.606Z,10.82
2023-04-15T10:33:20.260Z,10.81
2023-04-15T10:38:36.851Z,10.87
2023-04-15T10:43:40.085Z,10.89
2023-04-15T10:48:53.951Z,10.87
2023-04-15T10:53:59.599Z,10.77
2023-04-15T10:59:05.979Z,10.68
2023-04-15T11:04:09.114Z,10.66
2023-04-15T11:09:33.112Z,10.66
2023-04-15T11:14:41.739Z,10.67
2023-04-15T11:19:44.949Z,10.66
2023-04-15T11:24:50.753Z,10.63
2023-04-15T11:29:54.346Z,10.59
2023-04-15T11:34:58.578Z,10.57
2023-04-15T11:40:03.621Z,10.61
2023-04-15T11:45:09.536Z,10.69
2023-04-15T11:50:20.416Z,10.72
2023-04-15T11:55:26.874Z,10.65
2023-04-15T12:00:29.897Z,10.54
2023-04-15T12:05:33.005Z,10.42
2023-04-15T12:10:35.911Z,10.33
2023-04-15T12:15:39.567Z,10.32
2023-04-15T12:20:45.917Z,10.28
2023-04-15T12:25:52.825Z,10.17
2023-04-15T12:30:56.040Z,10.01
2023-04-15T12:35:59.649Z,9.92
2023-04-15T12:41:02.759Z,9.89
2023-04-15T12:46:07.226Z,9.88
2023-04-15T12:51:10.514Z,9.85
2023-04-15T12:56:13.525Z,9.83
2023-04-15T13:01:16.525Z,9.82
2023-04-15T13:06:19.746Z,9.79
2023-04-15T13:11:23.261Z,9.79
2023-04-15T13:16:26.394Z,9.79
2023-04-15T13:21:32.239Z,9.87
2023-04-15T13:26:35.153Z,9.99
2023-04-15T13:31:38.102Z,10.10
2023-04-15T13:36:41.048Z,10.27
2023-04-15T13:41:44.169Z,10.51
2023-04-15T13:46:47.370Z,10.67
2023-04-15T13:51:51.761Z,10.68
2023-04-15T13:56:56.589Z,10.54
2023-04-15T14:01:59.724Z,10.31
2023-04-15T14:07:05.026Z,10.08
2023-04-15T14:12:08.573Z,9.90
2023-04-15T14:17:11.761Z,9.80
2023-04-15T14:22:14.765Z,9.74
2023-04-15T14:27:17.765Z,9.76
2023-04-15T14:32:21.428Z,9.84
2023-04-15T14:37:24.496Z,9.86
2023-04-15T14:42:27.506Z,9.82
2023-04-15T14:47:31.567Z,9.74
2023-04-15T14:52:38.857Z,9.71
2023-04-15T14:57:42.766Z,9.71
2023-04-15T15:02:47.583Z,9.71
2023-04-15T15:07:50.734Z,9.67
2023-04-15T15:12:53.739Z,9.65
2023-04-15T15:17:56.769Z,9.57
2023-04-15T15:23:01.013Z,9.48
2023-04-15T15:28:04.030Z,9.38
2023-04-15T15:33:07.368Z,9.31
2023-04-15T15:38:12.677Z,9.24
2023-04-15T15:43:15.568Z,9.19
2023-04-15T15:48:18.776Z,9.16
2023-04-15T15:53:24.441Z,9.12
2023-04-15T15:58:27.450Z,9.10
2023-04-15T16:03:30.784Z,9.08
2023-04-15T16:08:33.872Z,9.04
2023-04-15T16:13:36.983Z,8.97
2023-04-15T16:18:39.991Z,8.90
2023-04-15T16:23:42.999Z,8.85
2023-04-15T16:28:46.203Z,8.82
2023-04-15T16:33:49.113Z,8.79
2023-04-15T16:38:52.630Z,8.75
2023-04-15T16:43:58.097Z,8.71
2023-04-15T16:49:01.509Z,8.67
2023-04-15T16:54:04.582Z,8.63
2023-04-15T16:59:07.520Z,8.58
2023-04-15T17:04:10.572Z,8.51
2023-04-15T17:09:13.633Z,8.44
2023-04-15T17:14:16.651Z,8.37
2023-04-15T17:19:19.856Z,8.28
2023-04-15T17:24:23.371Z,8.22
2023-04-15T17:29:26.384Z,8.16
2023-04-15T17:34:50.796Z,8.10
2023-04-15T17:39:53.208Z,8.04
2023-04-15T17:44:56.399Z,7.99
2023-04-15T17:49:59.498Z,7.95
2023-04-15T17:55:02.858Z,7.90
2023-04-15T18:00:07.130Z,7.83
2023-04-15T18:05:10.817Z,7.74
2023-04-15T18:10:13.885Z,7.66
2023-04-15T18:15:16.882Z,7.58
2023-04-15T18:20:20.425Z,7.53
2023-04-15T18:25:23.407Z,7.47
2023-04-15T18:30:26.937Z,7.40
2023-04-15T18:35:30.149Z,7.34
2023-04-15T18:40:33.083Z,7.26
2023-04-15T18:45:36.599Z,7.19
2023-04-15T18:50:39.492Z,7.13
2023-04-15T18:55:43.093Z,7.08
2023-04-15T19:00:46.133Z,7.03
2023-04-15T19:05:49.306Z,6.98
2023-04-15T19:10:52.417Z,6.94
2023-04-15T19:15:55.627Z,6.92
2023-04-15T19:20:58.630Z,6.89
2023-04-15T19:26:01.643Z,6.87
2023-04-15T19:31:04.779Z,6.85
2023-04-15T19:36:07.964Z,6.84
2023-04-15T19:41:11.281Z,6.82
2023-04-15T19:46:14.414Z,6.82
2023-04-15T19:51:17.497Z,6.82
2023-04-15T19:56:20.934Z,6.83
2023-04-15T20:01:24.060Z,6.83
2023-04-15T20:06:27.639Z,6.82
2023-04-15T20:12:47.457Z,6.82
2023-04-15T20:16:53.944Z,6.84
2023-04-15T20:21:56.930Z,6.84
2023-04-15T20:27:00.040Z,6.85
2023-04-15T20:32:03.156Z,6.87
2023-04-15T20:37:07.349Z,6.90
2023-04-15T20:42:10.713Z,6.92
2023-04-15T20:47:13.946Z,6.94
2023-04-15T20:52:17.019Z,6.95
2023-04-15T20:57:24.740Z,6.97
2023-04-15T21:02:27.938Z,6.98
2023-04-15T21:07:31.580Z,7.00
2023-04-15T21:12:34.700Z,7.01
2023-04-15T21:17:38.292Z,7.02
2023-04-15T21:22:41.518Z,7.01
2023-04-15T21:27:44.724Z,7.00
2023-04-15T21:32:47.773Z,6.99
2023-04-15T21:37:50.836Z,6.98
2023-04-15T21:42:53.947Z,6.97
2023-04-15T21:48:07.049Z,6.96
2023-04-15T21:53:11.746Z,6.96
2023-04-15T21:58:14.746Z,6.95
2023-04-15T22:03:17.829Z,6.94
2023-04-15T22:08:20.971Z,6.94
2023-04-15T22:13:23.967Z,6.95
2023-04-15T22:18:26.868Z,6.95
2023-04-15T22:23:29.979Z,6.93
2023-04-15T22:28:33.190Z,6.92
2023-04-15T22:33:36.309Z,6.92
2023-04-15T22:38:39.301Z,6.90
2023-04-15T22:43:42.417Z,6.89
2023-04-15T22:48:46.136Z,6.88
2023-04-15T22:53:49.961Z,6.86
2023-04-15T22:58:52.964Z,6.86
2023-04-15T23:04:05.633Z,6.86
2023-04-15T23:09:12.013Z,6.85
2023-04-15T23:14:15.101Z,6.84
2023-04-15T23:19:18.304Z,6.82
2023-04-15T23:24:21.311Z,6.80
2023-04-15T23:29:24.419Z,6.80
2023-04-15T23:34:27.526Z,6.78
2023-04-15T23:39:30.740Z,6.75
2023-04-15T23:44:33.952Z,6.74
2023-04-15T23:49:37.160Z,6.72
2023-04-15T23:54:40.228Z,6.71
2023-04-15T23:59:43.078Z,6.69
